• Join FlightAware (Why Join?)
  • Login
  • US Flag 
12:02AM EDT


 

Airport Tracker/Info


-or-


 

Live Flight TrackerFlight Track Log ✈ AAL1398 ✈ 19-May-2013 ✈ MDSD / SDQ - KMIA

Flight Track Log - Related Links

Times and Time Zones

All times are in EDT time to prevent confusion due to time zone crossing. See the AAL1398 flight status page for this flight to view local times or setup timezone preferences in your user account.

Time Position Orientation Groundspeed Altitude Reporting Facility
EDT Latitude Longitude Course Direction KTS MPH feet Rate Location/Type
12:36PM 18.6110 -69.7882 328° Northwest  Level FlightAware Approximate
12:37PM 18.7016 -69.8479 328° Northwest  Level FlightAware Approximate
12:38PM 18.7923 -69.9077 328° Northwest  Level FlightAware Approximate
12:39PM 18.8829 -69.9675 328° Northwest  Level FlightAware Approximate
12:40PM 18.9734 -70.0274 328° Northwest  Level FlightAware Approximate
12:41PM 19.0640 -70.0874 328° Northwest  Level FlightAware Approximate
12:42PM 19.1438 -70.1412 325° Northwest  Level FlightAware Approximate
12:42PM 18.7808 -70.1431 327° Northwest 457 526 21,200  Level Miami Center
12:43PM 19.2310 -70.2066 325° Northwest  Level FlightAware Approximate
12:43PM 18.8919 -70.2189 327° Northwest 444 511 22,400  Level Miami Center
12:44PM 19.3182 -70.2720 325° Northwest  Level FlightAware Approximate
12:45PM 19.4077 -70.3338 327° Northwest  Level FlightAware Approximate
12:45PM 19.0794 -70.3239 332° Northwest 422 486 27,200  Level Miami Center
12:46PM 19.4977 -70.3949 327° Northwest  Level FlightAware Approximate
12:46PM 19.1861 -70.3847 332° Northwest 429 494 28,900  Level Miami Center
12:47PM 19.5877 -70.4561 327° Northwest  Level FlightAware Approximate
12:47PM 19.2950 -70.4500 331° Northwest 440 506 30,300  Level Miami Center
12:48PM 19.6776 -70.5173 327° Northwest  Level FlightAware Approximate
12:48PM 19.4058 -70.5153 331° Northwest 450 518 32,100  Level Miami Center
12:49PM 19.5144 -70.5783 331° Northwest 456 525 33,800 1,680 Climbing Miami Center
12:50PM 19.6214 -70.6461 329° Northwest 456 525 35,500 1,680 Climbing Miami Center
12:51PM 19.7297 -70.7031 334° Northwest 451 519 37,200 1,200 Climbing Miami Center
12:52PM 19.8344 -70.7711 329° Northwest 446 513 38,000 360 Climbing Miami Center
12:53PM 19.9369 -70.8328 331° Northwest 434 499 38,000  Level Miami Center
12:54PM 20.0369 -70.8878 333° Northwest 421 484 38,000  Level Miami Center
12:55PM 20.1417 -70.9539 329° Northwest 421 484 38,000  Level Miami Center
12:56PM 20.2417 -71.0139 331° Northwest 421 484 38,000  Level Miami Center
12:57PM 20.3483 -71.0778 331° Northwest 426 490 38,000  Level Miami Center
12:58PM 20.4408 -71.1533 323° Northwest 431 496 38,000  Level Miami Center
12:59PM 20.5006 -71.2528 303° West 412 474 38,000  Level Miami Center
01:00PM 20.5647 -71.3542 304° West 412 474 38,000  Level Miami Center
01:01PM 20.6267 -71.4558 303° West 412 474 38,000  Level Miami Center
01:02PM 20.6886 -71.5553 304° West 412 474 38,000  Level Miami Center
01:03PM 20.7525 -71.6592 303° West 412 474 38,000  Level Miami Center
01:04PM 20.8164 -71.7611 304° West 412 474 38,000  Level Miami Center
01:05PM 20.8781 -71.8608 304° West 412 474 38,000  Level Miami Center
01:06PM 20.9397 -71.9628 303° West 412 474 38,000  Level Miami Center
01:07PM 21.0033 -72.0672 303° West 412 474 38,000  Level Miami Center
01:08PM 21.0736 -72.1781 304° West 412 474 38,000  Level Miami Center
01:09PM 21.1372 -72.2803 304° West 412 474 38,000  Level Miami Center
01:10PM 21.1967 -72.3828 302° West 412 474 38,000  Level Miami Center
01:11PM 21.2600 -72.4853 304° West 412 474 38,000  Level Miami Center
01:12PM 21.3233 -72.5858 304° West 412 474 38,000  Level Miami Center
01:13PM 21.3847 -72.6886 303° West 412 474 38,000  Level Miami Center
01:14PM 21.4478 -72.7892 304° West 412 474 38,000  Level Miami Center
01:15PM 21.5089 -72.8900 303° West 407 468 38,000  Level Miami Center
01:16PM 21.5719 -72.9928 303° West 412 474 38,000  Level Miami Center
01:17PM 21.6331 -73.0939 303° West 407 468 38,000  Level Miami Center
01:18PM 21.6919 -73.1972 302° West 407 468 38,000  Level Miami Center
01:19PM 21.7547 -73.2958 304° West 407 468 38,000  Level Miami Center
01:20PM 21.8114 -73.3994 301° West 407 468 38,000  Level Miami Center
01:21PM 21.8742 -73.5031 303° West 407 468 38,000  Level Miami Center
01:22PM 21.9328 -73.6044 302° West 407 468 38,000  Level Miami Center
01:23PM 21.9975 -73.7036 305° West 407 468 38,000  Level Miami Center
01:24PM 22.0475 -73.7942 301° West 402 463 38,000  Level Miami Center
01:25PM 22.1058 -73.8983 301° West 402 463 38,000  Level Miami Center
01:26PM 22.1664 -73.9978 303° West 402 463 38,000  Level Miami Center
01:27PM 22.2267 -74.0994 303° West 402 463 38,000  Level Miami Center
01:28PM 22.2869 -74.2039 302° West 402 463 38,000  Level Miami Center
01:29PM 22.3494 -74.3081 303° West 407 468 38,000  Level Miami Center
01:30PM 22.4117 -74.4147 302° West 417 480 38,000  Level Miami Center
01:31PM 22.4739 -74.5169 303° West 417 480 38,000  Level Miami Center
01:32PM 22.5381 -74.6258 303° West 423 487 38,000  Level Miami Center
01:33PM 22.6003 -74.7350 302° West 423 487 38,000  Level Miami Center
01:34PM 22.6622 -74.8397 303° West 423 487 38,000  Level Miami Center
01:35PM 22.7264 -74.9469 303° West 423 487 38,000  Level Miami Center
01:36PM 22.7883 -75.0519 303° West 423 487 38,000  Level Miami Center
01:37PM 22.8481 -75.1569 302° West 423 487 38,000  Level Miami Center
01:38PM 22.9097 -75.2644 302° West 423 487 38,000  Level Miami Center
01:39PM 22.9694 -75.3675 302° West 423 487 38,000  Level Miami Center
01:40PM 23.0331 -75.4750 303° West 423 487 38,000  Level Miami Center
01:41PM 23.0925 -75.5783 302° West 418 481 38,000  Level Miami Center
01:42PM 23.1519 -75.6817 302° West 418 481 38,000  Level Miami Center
01:43PM 23.2111 -75.7875 301° West 413 475 38,000  Level Miami Center
01:44PM 23.2725 -75.8931 302° West 413 475 38,000  Level Miami Center
01:45PM 23.3400 -76.0081 303° West 413 475 38,000  Level Miami Center
01:46PM 23.3992 -76.1117 302° West 413 475 38,000  Level Miami Center
01:47PM 23.4603 -76.2181 302° West 413 475 38,000  Level Miami Center
01:48PM 23.5211 -76.3242 302° West 413 475 38,000  Level Miami Center
01:49PM 23.5822 -76.4328 302° West 413 475 38,000  Level Miami Center
01:50PM 23.6431 -76.5392 302° West 413 475 38,000  Level Miami Center
01:51PM 23.7039 -76.6478 301° West 413 475 38,000  Level Miami Center
01:52PM 23.7647 -76.7544 302° West 413 475 38,000  Level Miami Center
01:53PM 23.8272 -76.8633 302° West 418 481 38,000  Level Miami Center
01:54PM 23.8753 -76.9519 301° West 418 481 38,000  Level Miami Center
01:55PM 23.9422 -77.0725 301° West 418 481 38,000  Level Miami Center
01:56PM 24.0025 -77.1864 300° West 423 487 38,000  Level Miami Center
01:57PM 24.0628 -77.2936 302° West 423 487 38,000  Level Miami Center
01:58PM 24.1253 -77.4008 303° West 423 487 38,000  Level Miami Center
01:59PM 24.1853 -77.5128 300° West 423 487 38,000  Level Miami Center
02:00PM 24.2456 -77.6200 302° West 423 487 38,000  Level Miami Center
02:01PM 24.3056 -77.7322 300° West 423 487 38,000  Level Miami Center
02:02PM 24.3653 -77.8422 301° West 423 487 38,000  Level Miami Center
02:03PM 24.4253 -77.9475 302° West 423 487 38,000  Level Miami Center
02:04PM 24.4850 -78.0600 300° West 423 487 38,000  Level Miami Center
02:05PM 24.5447 -78.1703 301° West 423 487 38,000  Level Miami Center
02:06PM 24.6106 -78.2875 302° West 423 487 38,000  Level Miami Center
02:07PM 24.6700 -78.3956 301° West 423 487 38,000 -360 Level Miami Center
02:08PM 24.7275 -78.5039 300° West 423 487 37,300 -1,620 Descending Miami Center
02:09PM 24.7889 -78.6144 301° West 418 481 34,800 -2,640 Descending Miami Center
02:10PM 24.8481 -78.7253 300° West 428 493 32,100 -2,400 Descending Miami Center
02:11PM 24.9136 -78.8361 303° West 428 493 30,100 -2,100 Descending Miami Center
02:12PM 24.9728 -78.9403 302° West 423 487 28,000 -2,100 Descending Miami Center
02:13PM 25.0275 -79.0444 300° West 407 468 26,000 -1,980 Descending Miami Center
02:14PM 25.0825 -79.1442 301° West 396 456 24,100 -1,980 Descending Miami Center
02:15PM 25.1311 -79.2436 298° West 381 438 22,100 -1,980 Descending Miami Center
02:16PM 25.1839 -79.3389 301° West 376 433 20,200 -1,920 Descending Miami Center
02:17PM 25.2344 -79.4317 301° West 366 421 18,300 -1,920 Descending Miami Center
02:18PM 25.2831 -79.5225 301° West 359 413 16,400 -1,920 Descending Miami Center
02:19PM 25.3314 -79.6131 301° West 348 400 14,500 -1,980 Descending Miami Center
02:20PM 25.3800 -79.7039 301° West 343 395 12,500 -1,800 Descending Miami Center
02:21PM 25.3958 -79.7411 295° West 336 387 12,000 -600 Descending Miami Center
02:21PM 25.4306 -79.7856 311° West 337 388 11,900  Descending Miami Center
02:22PM 25.4467 -79.8206 297° West 305 351 12,000 -240 Climbing Miami Center
02:22PM 25.4792 -79.8606 312° West 322 371 11,700 -900 Descending Miami Center
02:23PM 25.4972 -79.8978 298° West 289 333 11,100 -1,500 Descending Miami Center
02:23PM 25.5258 -79.9306 314° West 302 348 10,200 -1,620 Descending Miami Center
02:24PM 25.5481 -79.9703 302° West 287 330 9,500 -1,320 Descending Miami Center
02:24PM 25.5725 -80.0008 312° West 292 336 8,900 -540 Descending Miami Center
02:25PM 25.5944 -80.0406 301° West 282 325 9,000  Climbing Miami Center
02:25PM 25.6189 -80.0711 312° West 292 336 8,900  Descending Miami Center
02:26PM 25.6350 -80.1039 299° West 273 314 9,000  Climbing Miami Center
02:26PM 25.6614 -80.1347 314° West 285 328 8,900 -420 Descending Miami Center
02:27PM 25.6647 -80.1669 277° West 235 270 8,600 -900 Descending Miami Center
02:27PM 25.6786 -80.2042 292° West 252 290 8,000 -1,200 Descending Miami Center
02:28PM 25.6881 -80.2483 283° West 232 267 7,300 -1,200 Descending Miami Center
02:28PM 25.6981 -80.2717 295° West 238 274 6,800 -1,140 Descending Miami Center
02:29PM 25.7033 -80.3042 280° West 196 226 6,300 -1,320 Descending Miami Center
02:29PM 25.7111 -80.3297 289° West 216 249 5,500 -1,380 Descending Miami Center
02:30PM 25.7061 -80.3664 261° West 196 226 4,900 -1,140 Descending Miami Center
02:31PM 25.7067 -80.4264 271° West 196 226 3,800 -1,200 Descending Miami Center
02:32PM 25.7481 -80.4531 330° Northwest 186 214 2,500 -1,320 Descending Miami Center